Monday, December 10, 2018, 9:23 PM EST
Back to Local

KCQX, Chatham Municipal Airport

Location: Chatham, MA, United States Lat: 41.683
Local Time: 9:23 PM EST ( 2:23 GMT) Lon: -70
Time Zone: US/Eastern Elev: 68 ft

Show me the last for .
Show Decoded

2018-12-10 20:52 METAR KCQX 110152Z AUTO 33003KT 10SM CLR M02/M07 A3015 RMK AO2 SLP212 T10221067
                 =
2018-12-10 19:52 METAR KCQX 110052Z AUTO 32003KT 10SM CLR M03/M07 A3014 RMK AO2 SLP209 T10331067
                 =
2018-12-10 18:52 METAR KCQX 102352Z AUTO 00000KT 10SM CLR M02/M07 A3013 RMK AO2 SLP204 T10221067
                 10039 21022 53010 =
2018-12-10 17:52 METAR KCQX 102252Z AUTO 00000KT 10SM CLR 00/M06 A3012 RMK AO2 SLP200 T00001061 =
2018-12-10 16:52 METAR KCQX 102152Z AUTO 36005KT 10SM SCT037 01/M05 A3011 RMK AO2 SLP197
                 T00111050 =
2018-12-10 15:52 METAR KCQX 102052Z AUTO VRB05KT 10SM OVC040 02/M05 A3010 RMK AO2 SLP194
                 T00171050 52019 =
2018-12-10 14:52 METAR KCQX 101952Z AUTO 03005KT 10SM OVC038 03/M05 A3008 RMK AO2 SLP187
                 T00281050 =
2018-12-10 13:52 METAR KCQX 101852Z AUTO 04006KT 10SM OVC037 03/M04 A3006 RMK AO2 SLP182
                 T00281044 =
2018-12-10 12:52 METAR KCQX 101752Z AUTO VRB05KT 10SM OVC044 04/M06 A3004 RMK AO2 SLP175
                 T00391056 10039 20011 56009 =
2018-12-10 11:52 METAR KCQX 101652Z AUTO 02007KT 330V050 10SM OVC042 04/M05 A3004 RMK AO2 SLP175
                 T00391050 =
2018-12-10 10:52 METAR KCQX 101552Z AUTO 03007G16KT 10SM OVC041 03/M06 A3006 RMK AO2 SLP181
                 T00331056 =
2018-12-10 09:52 METAR KCQX 101452Z AUTO VRB06KT 10SM OVC041 03/M05 A3007 RMK AO2 SLP184
                 T00331050 53012 =
2018-12-10 08:52 METAR KCQX 101352Z AUTO VRB03KT 10SM OVC038 03/M04 A3005 RMK AO2 SLP178
                 T00281039 =
2018-12-10 07:52 METAR KCQX 101252Z AUTO 35003KT 10SM OVC031 02/M04 A3004 RMK AO2 SLP174
                 T00171039 =
2018-12-10 06:52 METAR KCQX 101152Z AUTO VRB05KT 10SM OVC030 01/M04 A3003 RMK AO2 SLP172
                 T00061044 10006 21011 56005 =
2018-12-10 05:52 METAR KCQX 101052Z AUTO 34004KT 10SM CLR M01/M05 A3004 RMK AO2 SLP174 T10061050
                 =
2018-12-10 04:52 METAR KCQX 100952Z AUTO 00000KT 10SM CLR M01/M06 A3003 RMK AO2 SLP172 T10061056
                 =
2018-12-10 03:52 METAR KCQX 100852Z AUTO 00000KT 10SM CLR M01/M06 A3005 RMK AO2 SLP177 T10111061
                 56016 =
2018-12-10 02:52 METAR KCQX 100752Z AUTO 34003KT 10SM CLR M01/M06 A3006 RMK AO2 SLP182 T10061061
                 =
2018-12-10 01:52 METAR KCQX 100652Z AUTO VRB04KT 10SM CLR M01/M06 A3008 RMK AO2 SLP188 T10061061
                 =
2018-12-10 00:52 METAR KCQX 100552Z AUTO 27004KT 10SM CLR M01/M05 A3010 RMK AO2 SLP194 T10061050
                 10017 21006 58024 =
2018-12-09 23:52 METAR KCQX 100452Z AUTO 28004KT 10SM CLR M01/M06 A3012 RMK AO2 SLP201 T10061056
                 400171067 =
2018-12-09 22:52 METAR KCQX 100352Z AUTO 27004KT 10SM CLR M01/M05 A3016 RMK AO2 SLP216 T10061050
                 =
2018-12-09 21:52 METAR KCQX 100252Z AUTO 00000KT 10SM CLR 00/M05 A3017 RMK AO2 SLP218 T00001050
                 56015 =

Support USWX by starting your Amazon purchase here.